Time;durP1;ratioP1;P1;durP2;ratioP2;P2;SDS_P1;SDS_P2;PMS_P1;PMS_P2;Temp;Humidity;BMP_temperature;BMP_pressure;BME280_temperature;BME280_humidity;BME280_pressure;Samples;Min_cycle;Max_cycle;Signal;HPM_P1;HPM_P2
2023/04/14 00:00:53;;;;;;;5.45;2.10;;;;;;;;;;5072569;28;20045;-68
2023/04/14 00:03:20;;;;;;;5.15;2.10;;;;;;;;;;5073129;28;20087;-68
2023/04/14 00:05:46;;;;;;;4.50;1.70;;;;;;;;;;5072982;28;20054;-68
2023/04/14 00:08:13;;;;;;;3.97;1.83;;;;;;;;;;5073089;28;20062;-68
2023/04/14 00:10:40;;;;;;;4.45;1.80;;;;;;;;;;5072964;28;20051;-68
2023/04/14 00:13:06;;;;;;;4.90;1.98;;;;;;;;;;5073359;28;20048;-68
2023/04/14 00:15:33;;;;;;;4.32;1.77;;;;;;;;;;5072706;28;20062;-68
2023/04/14 00:18:01;;;;;;;5.93;1.95;;;;;;;;;;5072790;28;20131;-68
2023/04/14 00:20:27;;;;;;;4.50;1.92;;;;;;;;;;5072405;28;20048;-68
2023/04/14 00:22:54;;;;;;;5.03;1.92;;;;;;;;;;5072900;28;20382;-68
2023/04/14 00:25:20;;;;;;;4.25;2.10;;;;;;;;;;5072829;28;20052;-68
2023/04/14 00:27:47;;;;;;;5.50;2.30;;;;;;;;;;5073169;28;20044;-68
2023/04/14 00:30:14;;;;;;;3.13;1.92;;;;;;;;;;5073020;28;20051;-68
2023/04/14 00:32:40;;;;;;;6.25;2.53;;;;;;;;;;5073242;28;20252;-68
2023/04/14 00:35:09;;;;;;;5.13;2.72;;;;;;;;;;5072803;28;20040;-68
2023/04/14 00:37:35;;;;;;;4.97;2.33;;;;;;;;;;5072591;28;20130;-68
2023/04/14 00:40:02;;;;;;;6.03;1.77;;;;;;;;;;5073011;28;20045;-68
2023/04/14 00:42:29;;;;;;;4.20;1.88;;;;;;;;;;5072624;28;20045;-68
2023/04/14 00:44:55;;;;;;;2.95;1.90;;;;;;;;;;5072489;28;20047;-68
2023/04/14 00:47:22;;;;;;;5.68;1.98;;;;;;;;;;5072334;28;20049;-68
2023/04/14 00:49:49;;;;;;;5.82;1.98;;;;;;;;;;5073216;28;20489;-68
2023/04/14 00:52:18;;;;;;;5.13;2.00;;;;;;;;;;5072549;28;20409;-68
2023/04/14 00:54:45;;;;;;;3.55;2.20;;;;;;;;;;5072563;28;20409;-68
2023/04/14 00:57:12;;;;;;;6.65;2.13;;;;;;;;;;5071746;28;20051;-67
2023/04/14 00:59:38;;;;;;;3.05;2.00;;;;;;;;;;5072600;28;20055;-68
2023/04/14 01:02:05;;;;;;;5.88;1.73;;;;;;;;;;5072185;28;20293;-68
2023/04/14 01:04:32;;;;;;;4.47;2.13;;;;;;;;;;5072541;28;20138;-68
2023/04/14 01:06:59;;;;;;;3.53;1.85;;;;;;;;;;5071815;28;20052;-68
2023/04/14 01:09:27;;;;;;;4.38;2.47;;;;;;;;;;5072153;28;20248;-68
2023/04/14 01:12:01;;;;;;;4.25;2.22;;;;;;;;;;5070750;28;20132;-68
2023/04/14 01:14:40;;;;;;;3.35;1.85;;;;;;;;;;5071486;28;20045;-68
2023/04/14 01:17:13;;;;;;;6.03;2.00;;;;;;;;;;5071400;28;20051;-69
2023/04/14 01:19:56;;;;;;;6.05;2.35;;;;;;;;;;5071749;28;20049;-68
2023/04/14 01:22:26;;;;;;;7.85;2.00;;;;;;;;;;5071286;28;20049;-68
2023/04/14 01:25:09;;;;;;;4.18;2.13;;;;;;;;;;5071732;28;20055;-68
2023/04/14 01:27:43;;;;;;;5.43;2.30;;;;;;;;;;5071651;28;20057;-68
2023/04/14 01:30:28;;;;;;;5.18;2.30;;;;;;;;;;5071881;28;20045;-68
2023/04/14 01:33:01;;;;;;;3.63;1.95;;;;;;;;;;5071098;28;20112;-68
2023/04/14 01:35:34;;;;;;;5.25;2.10;;;;;;;;;;5071939;28;20051;-69
2023/04/14 01:38:03;;;;;;;;;;;;;;;;;;5071575;28;20456;-68
2023/04/14 01:40:32;;;;;;;3.97;2.30;;;;;;;;;;5071705;28;19920;-68
2023/04/14 01:43:03;;;;;;;4.38;2.03;;;;;;;;;;5071287;28;20048;-67
2023/04/14 01:45:36;;;;;;;3.72;1.90;;;;;;;;;;5071274;28;20096;-68
2023/04/14 01:48:05;;;;;;;;;;;;;;;;;;5071846;28;20474;-68
2023/04/14 01:50:34;;;;;;;5.28;2.28;;;;;;;;;;5071413;28;19920;-68
2023/04/14 01:53:02;;;;;;;10.15;2.40;;;;;;;;;;5071262;28;20391;-68
2023/04/14 01:55:31;;;;;;;6.38;2.25;;;;;;;;;;5071257;28;20045;-68
2023/04/14 01:57:59;;;;;;;3.53;2.47;;;;;;;;;;5071307;28;20513;-68
2023/04/14 02:00:27;;;;;;;4.47;2.20;;;;;;;;;;5070998;28;20074;-67
2023/04/14 02:02:55;;;;;;;3.88;1.88;;;;;;;;;;5071186;28;20045;-67
2023/04/14 02:05:24;;;;;;;5.82;2.05;;;;;;;;;;5070654;28;20131;-68
2023/04/14 02:07:52;;;;;;;3.53;2.03;;;;;;;;;;5070840;28;20047;-67
2023/04/14 02:10:21;;;;;;;3.97;2.25;;;;;;;;;;5070874;28;20054;-68
2023/04/14 02:12:50;;;;;;;6.25;2.50;;;;;;;;;;5071338;28;20044;-68
2023/04/14 02:15:18;;;;;;;6.35;2.13;;;;;;;;;;5070609;28;20045;-68
2023/04/14 02:17:48;;;;;;;3.95;2.40;;;;;;;;;;5071094;28;20066;-68
2023/04/14 02:20:15;;;;;;;4.35;2.33;;;;;;;;;;5070708;28;20051;-68
2023/04/14 02:22:43;;;;;;;4.97;2.13;;;;;;;;;;5069830;28;20052;-68
2023/04/14 02:25:10;;;;;;;4.22;2.53;;;;;;;;;;5070651;28;20052;-68
2023/04/14 02:27:40;;;;;;;8.35;2.58;;;;;;;;;;5070610;28;20044;-68
2023/04/14 02:30:12;;;;;;;4.20;2.03;;;;;;;;;;5070543;28;20051;-68
2023/04/14 02:32:41;;;;;;;6.47;2.05;;;;;;;;;;5070459;28;20078;-68
2023/04/14 02:35:12;;;;;;;5.13;2.90;;;;;;;;;;5070053;28;20051;-68
2023/04/14 02:37:41;;;;;;;4.88;2.33;;;;;;;;;;5070507;28;20048;-68
2023/04/14 02:40:15;;;;;;;7.60;2.42;;;;;;;;;;5070741;28;20048;-68
2023/04/14 02:42:48;;;;;;;4.97;2.22;;;;;;;;;;5070295;28;20045;-68
2023/04/14 02:45:20;;;;;;;4.85;1.92;;;;;;;;;;5070323;28;20050;-67
2023/04/14 02:47:52;;;;;;;4.55;2.30;;;;;;;;;;5069675;28;20506;-68
2023/04/14 02:50:22;;;;;;;5.50;2.10;;;;;;;;;;5070549;28;20045;-67
2023/04/14 02:52:51;;;;;;;4.78;2.10;;;;;;;;;;5070075;28;20131;-68
2023/04/14 02:55:20;;;;;;;5.25;1.92;;;;;;;;;;5070121;28;20079;-68
2023/04/14 02:57:48;;;;;;;5.15;2.08;;;;;;;;;;5069610;28;20486;-67
2023/04/14 03:00:16;;;;;;;6.00;2.03;;;;;;;;;;5070613;28;20079;-68
2023/04/14 03:02:44;;;;;;;7.53;1.88;;;;;;;;;;5070578;28;20075;-68
2023/04/14 03:05:11;;;;;;;6.65;2.20;;;;;;;;;;5070363;28;20055;-68
2023/04/14 03:07:38;;;;;;;8.35;2.47;;;;;;;;;;5069448;28;20518;-68
2023/04/14 03:10:06;;;;;;;3.97;2.22;;;;;;;;;;5070319;28;20072;-68
2023/04/14 03:12:35;;;;;;;2.13;1.83;;;;;;;;;;5069958;28;20055;-68
2023/04/14 03:15:02;;;;;;;5.60;1.95;;;;;;;;;;5070016;28;20520;-68
2023/04/14 03:17:31;;;;;;;6.72;2.10;;;;;;;;;;5069673;28;20051;-68
2023/04/14 03:19:59;;;;;;;7.15;2.10;;;;;;;;;;5070247;28;20461;-68
2023/04/14 03:22:27;;;;;;;8.77;2.25;;;;;;;;;;5070241;28;20052;-68
2023/04/14 03:24:57;;;;;;;4.45;2.25;;;;;;;;;;5070329;28;20453;-68
2023/04/14 03:27:26;;;;;;;4.70;2.22;;;;;;;;;;5069243;28;20502;-68
2023/04/14 03:29:58;;;;;;;6.03;2.03;;;;;;;;;;5069916;28;20087;-67
2023/04/14 03:32:29;;;;;;;5.95;2.25;;;;;;;;;;5069922;28;20422;-68
2023/04/14 03:35:00;;;;;;;3.03;2.08;;;;;;;;;;5073507;28;20040;-68
2023/04/14 03:37:27;;;;;;;2.92;1.85;;;;;;;;;;5073447;28;20151;-68
2023/04/14 03:39:58;;;;;;;3.72;2.20;;;;;;;;;;5073127;28;20047;-68
2023/04/14 03:42:27;;;;;;;4.05;2.25;;;;;;;;;;5073939;28;20327;-68
2023/04/14 03:44:56;;;;;;;4.05;1.95;;;;;;;;;;5073631;28;20561;-68
2023/04/14 03:47:23;;;;;;;4.65;2.03;;;;;;;;;;5073695;28;20338;-68
2023/04/14 03:49:53;;;;;;;5.15;2.45;;;;;;;;;;5073447;28;20071;-68
2023/04/14 03:52:22;;;;;;;3.65;2.05;;;;;;;;;;5073670;28;20045;-68
2023/04/14 03:54:50;;;;;;;6.88;1.90;;;;;;;;;;5073084;28;20041;-68
2023/04/14 03:57:18;;;;;;;3.55;1.95;;;;;;;;;;5073420;28;20048;-67
2023/04/14 03:59:49;;;;;;;3.25;1.95;;;;;;;;;;5073212;28;20493;-68
2023/04/14 04:02:19;;;;;;;7.07;2.35;;;;;;;;;;5073642;28;20052;-68
2023/04/14 04:04:48;;;;;;;6.13;2.33;;;;;;;;;;5072947;28;20056;-68
2023/04/14 04:07:17;;;;;;;4.97;2.45;;;;;;;;;;5073509;28;20120;-68
2023/04/14 04:09:46;;;;;;;4.50;2.13;;;;;;;;;;5073271;28;20051;-68
2023/04/14 04:12:17;;;;;;;4.78;2.70;;;;;;;;;;5073541;28;20047;-68
2023/04/14 04:14:43;;;;;;;3.53;2.05;;;;;;;;;;5072972;28;20528;-67
2023/04/14 04:17:13;;;;;;;6.00;2.10;;;;;;;;;;5073113;28;20044;-68
2023/04/14 04:19:43;;;;;;;6.38;2.53;;;;;;;;;;5072400;28;20041;-68
2023/04/14 04:22:12;;;;;;;2.67;1.90;;;;;;;;;;5073316;28;20420;-67
2023/04/14 04:24:40;;;;;;;4.47;2.25;;;;;;;;;;5073094;28;20375;-68
2023/04/14 04:27:07;;;;;;;4.78;2.15;;;;;;;;;;5072778;28;20051;-67
2023/04/14 04:29:33;;;;;;;6.78;2.22;;;;;;;;;;5073241;28;20296;-68
2023/04/14 04:32:00;;;;;;;5.68;2.08;;;;;;;;;;5072551;28;20044;-67
2023/04/14 04:34:31;;;;;;;5.68;2.20;;;;;;;;;;5073017;28;20045;-68
2023/04/14 04:37:00;;;;;;;3.20;2.00;;;;;;;;;;5072275;28;20044;-68
2023/04/14 04:39:26;;;;;;;5.53;2.22;;;;;;;;;;5072760;28;20094;-68
2023/04/14 04:42:02;;;;;;;4.20;2.28;;;;;;;;;;5119794;22;20527;-62
2023/04/14 04:44:28;;;;;;;4.40;2.58;;;;;;;;;;5113191;28;20476;-61
2023/04/14 04:46:55;;;;;;;3.40;2.20;;;;;;;;;;5112603;28;20518;-62
2023/04/14 04:49:22;;;;;;;3.75;2.20;;;;;;;;;;5113117;28;20044;-61
2023/04/14 04:51:49;;;;;;;3.92;2.42;;;;;;;;;;5112819;28;20416;-61
2023/04/14 04:54:17;;;;;;;7.43;4.35;;;;;;;;;;5112958;28;20050;-61
2023/04/14 04:56:45;;;;;;;5.25;2.40;;;;;;;;;;5112649;28;20043;-61
2023/04/14 04:59:11;;;;;;;4.72;2.20;;;;;;;;;;5112949;28;20471;-61
2023/04/14 05:01:38;;;;;;;8.07;2.53;;;;;;;;;;5112812;28;20050;-62
2023/04/14 05:04:05;;;;;;;4.43;2.50;;;;;;;;;;5112839;28;20079;-64
2023/04/14 05:06:35;;;;;;;4.15;2.30;;;;;;;;;;5112610;28;20051;-61
2023/04/14 05:09:03;;;;;;;5.25;2.90;;;;;;;;;;5112948;28;20051;-62
2023/04/14 05:11:31;;;;;;;6.88;2.72;;;;;;;;;;5112657;28;20050;-62
2023/04/14 05:13:58;;;;;;;5.22;2.17;;;;;;;;;;5112941;28;20044;-62
2023/04/14 05:16:27;;;;;;;5.80;2.50;;;;;;;;;;5113052;28;20044;-58
2023/04/14 05:18:53;;;;;;;5.93;2.63;;;;;;;;;;5112650;28;20051;-60
2023/04/14 05:21:20;;;;;;;4.78;2.45;;;;;;;;;;5112999;28;20408;-62
2023/04/14 05:23:47;;;;;;;5.97;2.70;;;;;;;;;;5112245;28;20055;-60
2023/04/14 05:26:14;;;;;;;5.70;2.83;;;;;;;;;;5112840;28;20039;-61
2023/04/14 05:28:42;;;;;;;5.57;2.53;;;;;;;;;;5112154;28;20466;-61
2023/04/14 05:31:09;;;;;;;7.22;2.60;;;;;;;;;;5112600;28;20412;-64
2023/04/14 05:33:36;;;;;;;4.50;2.88;;;;;;;;;;5112129;28;20047;-63
2023/04/14 05:36:03;;;;;;;6.25;3.08;;;;;;;;;;5112567;28;20054;-64
2023/04/14 05:38:29;;;;;;;10.23;2.97;;;;;;;;;;5111822;28;20052;-61
2023/04/14 05:40:56;;;;;;;6.57;2.78;;;;;;;;;;5112092;28;20524;-62
2023/04/14 05:43:22;;;;;;;8.80;3.50;;;;;;;;;;5112060;28;20397;-61
2023/04/14 05:45:50;;;;;;;6.20;3.10;;;;;;;;;;5112143;28;20412;-62
2023/04/14 05:48:17;;;;;;;7.63;3.63;;;;;;;;;;5111632;28;20052;-62
2023/04/14 05:50:44;;;;;;;15.63;3.50;;;;;;;;;;5112029;28;20044;-62
2023/04/14 05:53:11;;;;;;;8.00;3.13;;;;;;;;;;5111422;28;20325;-62
2023/04/14 05:55:39;;;;;;;4.30;2.85;;;;;;;;;;5102899;27;20092;-62
2023/04/14 05:58:06;;;;;;;5.38;2.75;;;;;;;;;;5118772;27;20085;-62
2023/04/14 06:00:32;;;;;;;8.48;3.20;;;;;;;;;;5110635;28;20043;-63
2023/04/14 06:03:01;;;;;;;13.68;3.70;;;;;;;;;;5110917;28;20051;-61
2023/04/14 06:05:28;;;;;;;7.60;4.03;;;;;;;;;;5110132;28;20447;-62
2023/04/14 06:07:54;;;;;;;12.20;3.75;;;;;;;;;;5108732;27;20039;-62
2023/04/14 06:10:21;;;;;;;10.88;4.45;;;;;;;;;;5110896;28;20058;-62
2023/04/14 06:12:48;;;;;;;10.55;3.67;;;;;;;;;;5111462;28;20121;-62
2023/04/14 06:15:14;;;;;;;5.75;3.45;;;;;;;;;;5125647;27;20130;-62
2023/04/14 06:17:41;;;;;;;8.93;4.20;;;;;;;;;;5132073;27;20051;-62
2023/04/14 06:20:10;;;;;;;11.45;3.53;;;;;;;;;;5132045;27;20039;-61
2023/04/14 06:22:39;;;;;;;8.88;3.92;;;;;;;;;;5131354;27;20139;-62
2023/04/14 06:25:06;;;;;;;8.65;3.85;;;;;;;;;;5130487;27;20129;-62
2023/04/14 06:27:32;;;;;;;9.02;3.90;;;;;;;;;;5123214;27;20051;-62
2023/04/14 06:30:00;;;;;;;8.05;3.90;;;;;;;;;;5090159;28;20040;-62
2023/04/14 06:32:26;;;;;;;8.02;3.65;;;;;;;;;;5091754;28;20392;-62
2023/04/14 06:34:53;;;;;;;8.80;4.00;;;;;;;;;;5120838;27;20302;-60
2023/04/14 06:37:21;;;;;;;7.68;3.63;;;;;;;;;;5120538;27;20054;-62
2023/04/14 06:39:47;;;;;;;7.28;3.40;;;;;;;;;;5122752;27;20507;-61
2023/04/14 06:42:14;;;;;;;8.20;3.63;;;;;;;;;;5124419;27;20502;-62
2023/04/14 06:44:41;;;;;;;7.28;3.35;;;;;;;;;;5124199;27;20539;-62
2023/04/14 06:47:08;;;;;;;5.25;3.10;;;;;;;;;;5117027;27;20050;-62
2023/04/14 06:49:35;;;;;;;6.13;3.08;;;;;;;;;;5129632;27;20046;-62
2023/04/14 06:52:03;;;;;;;6.18;2.95;;;;;;;;;;5090000;28;20544;-62
2023/04/14 06:54:33;;;;;;;11.13;3.75;;;;;;;;;;5089804;28;20048;-62
2023/04/14 06:57:00;;;;;;;6.07;3.50;;;;;;;;;;5089555;28;20135;-62
2023/04/14 06:59:28;;;;;;;8.55;3.33;;;;;;;;;;5089829;28;20512;-63
2023/04/14 07:01:55;;;;;;;7.75;3.08;;;;;;;;;;5095123;27;20089;-63
2023/04/14 07:04:22;;;;;;;4.93;3.00;;;;;;;;;;5115260;27;20100;-63
2023/04/14 07:06:49;;;;;;;6.75;2.85;;;;;;;;;;5111634;28;20044;-62
2023/04/14 07:09:15;;;;;;;5.93;3.22;;;;;;;;;;5124160;27;20075;-62
2023/04/14 07:11:45;;;;;;;8.10;3.47;;;;;;;;;;5109683;28;20097;-62
2023/04/14 07:14:11;;;;;;;5.65;3.05;;;;;;;;;;5110151;28;20044;-63
2023/04/14 07:16:38;;;;;;;5.53;3.10;;;;;;;;;;5109931;28;20050;-63
2023/04/14 07:19:05;;;;;;;5.32;2.83;;;;;;;;;;5104857;28;20504;-63
2023/04/14 07:21:32;;;;;;;5.60;2.97;;;;;;;;;;5096619;28;20409;-63
2023/04/14 07:23:58;;;;;;;6.53;2.70;;;;;;;;;;5101381;28;20065;-63
2023/04/14 07:26:25;;;;;;;5.55;3.25;;;;;;;;;;5126203;28;20049;-63
2023/04/14 07:28:53;;;;;;;6.25;2.80;;;;;;;;;;5126995;27;20467;-63
2023/04/14 07:31:19;;;;;;;13.75;3.80;;;;;;;;;;5120492;27;20110;-63
2023/04/14 07:33:46;;;;;;;4.63;2.53;;;;;;;;;;5119743;28;20054;-63
2023/04/14 07:36:13;;;;;;;4.22;2.50;;;;;;;;;;5108766;28;20040;-63
2023/04/14 07:38:40;;;;;;;4.05;2.63;;;;;;;;;;5109656;28;20059;-65
2023/04/14 07:41:07;;;;;;;5.10;3.10;;;;;;;;;;5109248;28;20101;-63
2023/04/14 07:43:34;;;;;;;3.40;2.60;;;;;;;;;;5109663;28;20051;-62
2023/04/14 07:46:03;;;;;;;5.53;3.03;;;;;;;;;;5104456;28;20048;-62
2023/04/14 07:48:31;;;;;;;5.43;3.22;;;;;;;;;;5089883;28;20458;-63
2023/04/14 07:50:58;;;;;;;8.65;3.25;;;;;;;;;;5110315;28;20481;-62
2023/04/14 07:53:25;;;;;;;9.05;3.30;;;;;;;;;;5109872;28;20747;-63
2023/04/14 07:55:52;;;;;;;5.38;2.67;;;;;;;;;;5110437;28;20139;-63
2023/04/14 07:58:18;;;;;;;5.22;2.80;;;;;;;;;;5110055;28;20497;-63
2023/04/14 08:00:45;;;;;;;5.53;2.60;;;;;;;;;;5125821;28;20047;-63
2023/04/14 08:03:13;;;;;;;7.53;2.53;;;;;;;;;;5113648;28;20047;-63
2023/04/14 08:05:40;;;;;;;6.13;2.50;;;;;;;;;;5108918;28;20261;-63
2023/04/14 08:08:08;;;;;;;5.00;2.22;;;;;;;;;;5111540;27;20040;-63
2023/04/14 08:10:35;;;;;;;7.10;2.20;;;;;;;;;;5117662;28;20047;-62
2023/04/14 08:13:02;;;;;;;6.53;2.47;;;;;;;;;;5110908;28;20504;-63
2023/04/14 08:15:30;;;;;;;4.97;2.38;;;;;;;;;;5116938;28;20043;-63
2023/04/14 08:17:57;;;;;;;10.52;2.38;;;;;;;;;;5114138;28;20043;-63
2023/04/14 08:20:25;;;;;;;3.35;1.80;;;;;;;;;;5113334;27;20480;-63
2023/04/14 08:22:52;;;;;;;8.32;2.17;;;;;;;;;;5123713;27;20139;-63
2023/04/14 08:25:19;;;;;;;7.63;2.72;;;;;;;;;;5114171;28;20043;-63
2023/04/14 08:27:45;;;;;;;4.40;1.92;;;;;;;;;;5113879;28;20047;-63
2023/04/14 08:30:13;;;;;;;6.47;2.22;;;;;;;;;;5122998;27;20054;-63
2023/04/14 08:32:39;;;;;;;8.57;2.50;;;;;;;;;;5122641;27;20488;-63
2023/04/14 08:35:06;;;;;;;4.70;2.00;;;;;;;;;;5133950;27;20181;-63
2023/04/14 08:37:35;;;;;;;5.43;2.13;;;;;;;;;;5134219;27;20057;-63
2023/04/14 08:40:01;;;;;;;2.85;1.45;;;;;;;;;;5133106;27;20046;-63
2023/04/14 08:42:28;;;;;;;7.65;2.13;;;;;;;;;;5133954;27;20043;-63
2023/04/14 08:44:55;;;;;;;3.47;1.70;;;;;;;;;;5127645;27;20053;-63
2023/04/14 08:47:23;;;;;;;4.22;1.52;;;;;;;;;;5120242;27;20046;-63
2023/04/14 08:49:56;;;;;;;4.40;1.80;;;;;;;;;;5111268;27;20130;-63
2023/04/14 08:52:26;;;;;;;2.95;1.80;;;;;;;;;;5119316;27;20057;-63
2023/04/14 08:54:57;;;;;;;5.80;2.17;;;;;;;;;;5133882;27;20405;-63
2023/04/14 08:57:26;;;;;;;5.70;1.75;;;;;;;;;;5133569;27;20054;-63
2023/04/14 08:59:55;;;;;;;8.55;2.20;;;;;;;;;;5133621;27;20043;-63
2023/04/14 09:02:22;;;;;;;6.80;1.92;;;;;;;;;;5132948;27;20142;-63
2023/04/14 09:04:49;;;;;;;8.05;2.60;;;;;;;;;;5133919;27;20130;-63
2023/04/14 09:07:16;;;;;;;10.50;2.10;;;;;;;;;;5133079;27;20106;-63
2023/04/14 09:09:43;;;;;;;7.78;2.15;;;;;;;;;;5133885;27;20047;-63
2023/04/14 09:12:12;;;;;;;5.03;1.92;;;;;;;;;;5133278;27;20424;-63
2023/04/14 09:14:40;;;;;;;5.45;2.30;;;;;;;;;;5125532;27;20043;-63
2023/04/14 09:17:07;;;;;;;5.47;1.90;;;;;;;;;;5111889;28;20075;-63
2023/04/14 09:19:34;;;;;;;2.80;1.60;;;;;;;;;;5112906;28;20107;-63
2023/04/14 09:22:01;;;;;;;5.32;1.85;;;;;;;;;;5112795;28;20050;-63
2023/04/14 09:24:28;;;;;;;4.47;1.60;;;;;;;;;;5113015;28;20048;-63
2023/04/14 09:26:55;;;;;;;5.15;1.73;;;;;;;;;;5112428;28;20051;-63
2023/04/14 09:29:23;;;;;;;4.30;1.73;;;;;;;;;;5113258;28;20465;-63
2023/04/14 09:31:50;;;;;;;6.70;1.60;;;;;;;;;;5112502;27;20047;-63
2023/04/14 09:34:19;;;;;;;3.58;1.70;;;;;;;;;;5121843;27;20547;-63
2023/04/14 09:37:01;;;;;;;4.30;1.27;;;;;;;;;;5118792;27;20039;-63
2023/04/14 09:39:28;;;;;;;3.72;1.45;;;;;;;;;;5111496;27;20059;-63
2023/04/14 09:41:54;;;;;;;4.55;1.83;;;;;;;;;;5124077;27;20047;-63
2023/04/14 09:44:23;;;;;;;4.57;1.35;;;;;;;;;;5118345;27;20044;-63
2023/04/14 09:46:57;;;;;;;4.15;1.40;;;;;;;;;;5095846;27;20051;-63
2023/04/14 09:49:24;;;;;;;5.93;1.42;;;;;;;;;;5128460;27;20039;-63
2023/04/14 09:51:54;;;;;;;1.88;1.25;;;;;;;;;;5119880;27;20167;-63
2023/04/14 09:54:25;;;;;;;4.32;1.27;;;;;;;;;;5127082;27;20412;-63
2023/04/14 09:56:52;;;;;;;3.08;1.00;;;;;;;;;;5119112;27;20378;-63
2023/04/14 09:59:32;;;;;;;2.85;1.40;;;;;;;;;;5117408;27;20059;-63
2023/04/14 10:02:03;;;;;;;3.00;1.33;;;;;;;;;;5108615;28;20418;-62
2023/04/14 10:04:30;;;;;;;4.63;1.58;;;;;;;;;;5090634;28;20051;-63
2023/04/14 10:06:57;;;;;;;2.92;1.00;;;;;;;;;;5101196;27;20505;-63
2023/04/14 10:09:26;;;;;;;2.00;1.20;;;;;;;;;;5127129;27;20055;-63
2023/04/14 10:12:07;;;;;;;4.25;1.50;;;;;;;;;;5113069;27;20043;-63
2023/04/14 10:14:36;;;;;;;2.45;1.35;;;;;;;;;;5122776;27;20057;-62
2023/04/14 10:17:03;;;;;;;2.42;1.30;;;;;;;;;;5119051;27;20043;-63
2023/04/14 10:19:29;;;;;;;4.38;1.25;;;;;;;;;;5119414;27;20074;-63
2023/04/14 10:21:57;;;;;;;4.18;1.50;;;;;;;;;;5120148;27;20131;-63
2023/04/14 10:24:24;;;;;;;5.55;1.33;;;;;;;;;;5115621;27;20051;-63
2023/04/14 10:26:51;;;;;;;3.88;1.42;;;;;;;;;;5113234;27;20043;-63
2023/04/14 10:29:18;;;;;;;3.15;1.38;;;;;;;;;;5112654;27;20489;-63
2023/04/14 10:31:50;;;;;;;5.35;1.70;;;;;;;;;;5116673;27;20436;-62
2023/04/14 10:34:18;;;;;;;3.27;1.20;;;;;;;;;;5131686;27;20043;-63
2023/04/14 10:36:45;;;;;;;1.92;1.20;;;;;;;;;;5115173;27;20077;-63
2023/04/14 10:39:13;;;;;;;3.30;1.20;;;;;;;;;;5110403;28;20054;-63
2023/04/14 10:41:46;;;;;;;4.22;2.17;;;;;;;;;;5093968;22;20131;-70
2023/04/14 10:44:27;;;;;;;6.28;1.70;;;;;;;;;;5064075;28;20084;-69
2023/04/14 10:46:56;;;;;;;5.93;1.40;;;;;;;;;;5054548;28;20076;-70
2023/04/14 10:49:25;;;;;;;5.70;1.50;;;;;;;;;;5068388;28;20232;-70
2023/04/14 10:51:52;;;;;;;3.85;1.58;;;;;;;;;;5062107;28;20409;-70
2023/04/14 10:54:18;;;;;;;5.60;1.52;;;;;;;;;;5053425;28;20051;-70
2023/04/14 10:57:11;;;;;;;2.97;1.10;;;;;;;;;;5067908;28;20044;-70
2023/04/14 10:59:41;;;;;;;3.28;1.27;;;;;;;;;;5068070;28;20805;-70
2023/04/14 11:02:25;;;;;;;4.00;1.50;;;;;;;;;;5067921;28;20622;-71
2023/04/14 11:05:04;;;;;;;4.55;1.38;;;;;;;;;;5060244;28;20136;-70
2023/04/14 11:07:36;;;;;;;3.95;1.55;;;;;;;;;;5068032;28;20098;-70
2023/04/14 11:10:25;;;;;;;4.55;1.55;;;;;;;;;;5072781;28;20044;-69
2023/04/14 11:12:55;;;;;;;2.88;1.45;;;;;;;;;;5060488;28;20048;-70
2023/04/14 11:15:22;;;;;;;4.95;1.73;;;;;;;;;;5061737;28;20051;-70
2023/04/14 11:17:51;;;;;;;7.43;1.80;;;;;;;;;;5056566;28;20072;-69
2023/04/14 11:20:19;;;;;;;5.28;1.58;;;;;;;;;;5059003;28;20053;-69
2023/04/14 11:22:47;;;;;;;3.58;1.52;;;;;;;;;;5067208;28;20064;-70
2023/04/14 11:25:15;;;;;;;4.63;1.73;;;;;;;;;;5061423;28;20131;-70
2023/04/14 11:27:42;;;;;;;4.75;1.70;;;;;;;;;;5067246;28;20048;-70
2023/04/14 11:30:14;;;;;;;4.90;1.65;;;;;;;;;;5063036;28;20049;-69
2023/04/14 11:32:49;;;;;;;4.35;1.73;;;;;;;;;;5069216;28;20048;-70
2023/04/14 11:35:17;;;;;;;5.13;1.80;;;;;;;;;;5060650;28;20049;-70
2023/04/14 11:37:44;;;;;;;3.63;1.70;;;;;;;;;;5049927;28;20132;-70
2023/04/14 11:40:12;;;;;;;5.40;1.60;;;;;;;;;;5049731;28;20103;-70
2023/04/14 11:42:43;;;;;;;3.60;1.48;;;;;;;;;;5049813;28;20462;-70
2023/04/14 11:45:12;;;;;;;5.75;1.27;;;;;;;;;;5049626;28;20055;-69
2023/04/14 11:47:39;;;;;;;4.00;1.33;;;;;;;;;;5049603;28;20045;-69
2023/04/14 11:50:07;;;;;;;6.80;1.40;;;;;;;;;;5049471;28;20037;-70
2023/04/14 11:52:35;;;;;;;4.63;1.50;;;;;;;;;;5049847;28;20075;-70
2023/04/14 11:55:02;;;;;;;5.60;1.70;;;;;;;;;;5051181;28;20044;-70
2023/04/14 11:57:29;;;;;;;4.05;1.80;;;;;;;;;;5053370;28;20053;-70
2023/04/14 11:59:56;;;;;;;4.43;1.42;;;;;;;;;;5054463;28;20414;-70
2023/04/14 12:02:23;;;;;;;5.65;1.30;;;;;;;;;;5073452;28;20117;-71
2023/04/14 12:04:51;;;;;;;3.70;1.40;;;;;;;;;;5073031;28;20512;-70
2023/04/14 12:07:19;;;;;;;2.28;1.25;;;;;;;;;;5073777;28;20452;-67
2023/04/14 12:09:49;;;;;;;4.45;1.20;;;;;;;;;;5072894;28;20136;-70
2023/04/14 12:12:17;;;;;;;6.50;1.17;;;;;;;;;;5073395;28;20048;-70
2023/04/14 12:14:45;;;;;;;5.68;1.20;;;;;;;;;;5073052;28;20052;-68
2023/04/14 12:17:14;;;;;;;3.25;1.35;;;;;;;;;;5073404;28;20045;-70
2023/04/14 12:19:41;;;;;;;2.30;0.98;;;;;;;;;;5067366;28;20055;-69
2023/04/14 12:22:08;;;;;;;4.28;1.33;;;;;;;;;;5053150;28;20068;-70
2023/04/14 12:24:35;;;;;;;1.42;1.00;;;;;;;;;;5053019;28;20049;-69
2023/04/14 12:27:05;;;;;;;5.43;1.10;;;;;;;;;;5051971;28;20045;-69
2023/04/14 12:29:33;;;;;;;3.60;1.42;;;;;;;;;;5053183;28;20045;-70
2023/04/14 12:32:00;;;;;;;3.05;1.08;;;;;;;;;;5053007;28;20410;-70
2023/04/14 12:34:28;;;;;;;5.68;1.38;;;;;;;;;;5052752;28;20049;-70
2023/04/14 12:36:55;;;;;;;3.38;0.90;;;;;;;;;;5052379;28;20045;-69
2023/04/14 12:39:24;;;;;;;4.43;1.13;;;;;;;;;;5053055;28;20045;-70
2023/04/14 12:41:51;;;;;;;2.90;1.10;;;;;;;;;;5052788;28;20076;-69
2023/04/14 12:44:20;;;;;;;3.38;1.13;;;;;;;;;;5053075;28;20051;-70
2023/04/14 12:46:48;;;;;;;5.40;1.73;;;;;;;;;;5052695;28;20049;-69
2023/04/14 12:49:36;;;;;;;3.92;1.40;;;;;;;;;;5052820;28;20059;-70
2023/04/14 12:52:03;;;;;;;3.30;1.10;;;;;;;;;;5065807;28;20044;-69
2023/04/14 12:54:50;;;;;;;2.25;0.90;;;;;;;;;;5073011;28;20052;-70
2023/04/14 12:57:18;;;;;;;4.63;1.17;;;;;;;;;;5072416;28;20045;-70
2023/04/14 12:59:46;;;;;;;4.00;1.30;;;;;;;;;;5072708;28;20416;-69
2023/04/14 13:02:14;;;;;;;3.55;1.23;;;;;;;;;;5069606;28;20044;-69
2023/04/14 13:04:40;;;;;;;2.80;0.98;;;;;;;;;;5072023;28;20056;-69
2023/04/14 13:07:07;;;;;;;4.72;1.20;;;;;;;;;;5071304;28;20463;-70
2023/04/14 13:09:33;;;;;;;5.07;1.10;;;;;;;;;;5072063;28;20070;-69
2023/04/14 13:12:00;;;;;;;4.20;1.00;;;;;;;;;;5071723;28;20135;-70
2023/04/14 13:14:27;;;;;;;2.20;0.90;;;;;;;;;;5072224;28;20049;-69
2023/04/14 13:16:55;;;;;;;3.90;1.45;;;;;;;;;;5071512;28;20040;-71
2023/04/14 13:19:22;;;;;;;3.50;1.40;;;;;;;;;;5069501;28;20088;-72
2023/04/14 13:21:50;;;;;;;2.53;1.00;;;;;;;;;;5069536;28;20044;-70
2023/04/14 13:24:16;;;;;;;2.58;1.08;;;;;;;;;;5071820;28;20102;-70
2023/04/14 13:26:44;;;;;;;3.83;1.20;;;;;;;;;;5071625;28;20064;-70
2023/04/14 13:29:12;;;;;;;4.25;0.93;;;;;;;;;;5071582;28;20063;-71
2023/04/14 13:31:38;;;;;;;3.03;0.95;;;;;;;;;;5070831;28;20044;-70
2023/04/14 13:34:06;;;;;;;5.80;1.10;;;;;;;;;;5071771;28;20051;-70
2023/04/14 13:36:33;;;;;;;3.53;1.90;;;;;;;;;;5071486;28;20045;-70
2023/04/14 13:38:59;;;;;;;4.13;1.38;;;;;;;;;;5071349;28;20044;-70
2023/04/14 13:41:26;;;;;;;1.80;1.10;;;;;;;;;;5055146;28;20044;-70
2023/04/14 13:43:53;;;;;;;5.97;1.35;;;;;;;;;;5051793;28;20491;-70
2023/04/14 13:46:19;;;;;;;3.30;1.42;;;;;;;;;;5051371;28;20498;-70
2023/04/14 13:48:46;;;;;;;4.38;1.17;;;;;;;;;;5052042;28;20136;-70
2023/04/14 13:51:14;;;;;;;4.47;1.10;;;;;;;;;;5062651;28;20398;-69
2023/04/14 13:53:40;;;;;;;4.45;1.00;;;;;;;;;;5058321;28;20055;-69
2023/04/14 13:56:07;;;;;;;2.75;1.35;;;;;;;;;;5050941;28;20049;-70
2023/04/14 13:58:35;;;;;;;3.38;1.00;;;;;;;;;;5051102;28;20457;-70
2023/04/14 14:01:09;;;;;;;2.50;1.05;;;;;;;;;;5051074;28;20045;-70
2023/04/14 14:03:38;;;;;;;3.17;1.10;;;;;;;;;;5051439;28;20045;-70
2023/04/14 14:06:06;;;;;;;4.78;1.20;;;;;;;;;;5051294;28;20328;-70
2023/04/14 14:08:36;;;;;;;3.13;1.10;;;;;;;;;;5050482;28;20049;-70
2023/04/14 14:11:03;;;;;;;2.97;1.30;;;;;;;;;;5050526;28;20049;-72
2023/04/14 14:13:30;;;;;;;1.40;0.90;;;;;;;;;;5051056;28;20406;-69
2023/04/14 14:15:56;;;;;;;2.65;1.40;;;;;;;;;;5050892;28;20406;-70
2023/04/14 14:18:23;;;;;;;3.80;1.50;;;;;;;;;;5049907;28;20434;-70
2023/04/14 14:20:50;;;;;;;2.72;1.10;;;;;;;;;;5050690;28;20557;-70
2023/04/14 14:23:17;;;;;;;5.25;1.70;;;;;;;;;;5050812;28;20049;-70
2023/04/14 14:25:45;;;;;;;3.92;1.30;;;;;;;;;;5050490;28;20053;-69
2023/04/14 14:28:13;;;;;;;3.65;1.88;;;;;;;;;;5050579;28;20535;-70
2023/04/14 14:30:39;;;;;;;2.13;1.00;;;;;;;;;;5050934;28;20048;-71
2023/04/14 14:33:06;;;;;;;3.45;1.15;;;;;;;;;;5050235;28;20067;-70
2023/04/14 14:35:33;;;;;;;2.85;1.17;;;;;;;;;;5050645;28;20135;-70
2023/04/14 14:37:59;;;;;;;3.45;1.20;;;;;;;;;;5050132;28;20051;-70
2023/04/14 14:40:26;;;;;;;6.00;1.75;;;;;;;;;;5050588;28;20049;-69
2023/04/14 14:42:54;;;;;;;6.18;1.73;;;;;;;;;;5050461;28;20041;-69
2023/04/14 14:45:21;;;;;;;3.38;1.50;;;;;;;;;;5050974;28;20049;-70
2023/04/14 14:47:47;;;;;;;2.45;1.20;;;;;;;;;;5050611;28;20087;-70
2023/04/14 14:50:14;;;;;;;5.25;2.75;;;;;;;;;;5051243;28;20103;-70